Time;durP1;ratioP1;P1;durP2;ratioP2;P2;SDS_P1;SDS_P2;PMS_P1;PMS_P2;Temp;Humidity;BMP_temperature;BMP_pressure;BME280_temperature;BME280_humidity;BME280_pressure;Samples;Min_cycle;Max_cycle;Signal;HPM_P1;HPM_P2
2021/12/25 00:00:59;;;;;;;12.18;8.80;;;15.20;53.80;;;;;;5101404;28;20385;-37
2021/12/25 00:03:25;;;;;;;12.95;9.18;;;15.20;53.80;;;;;;5119145;28;20484;-37
2021/12/25 00:05:54;;;;;;;12.45;8.98;;;15.20;53.70;;;;;;5119562;28;20028;-39
2021/12/25 00:08:20;;;;;;;13.27;9.93;;;15.20;53.80;;;;;;5119084;28;20028;-38
2021/12/25 00:10:47;;;;;;;11.73;8.95;;;15.20;53.90;;;;;;5118887;28;20019;-38
2021/12/25 00:13:14;;;;;;;13.05;9.65;;;15.20;53.70;;;;;;5118310;28;20486;-40
2021/12/25 00:15:40;;;;;;;13.43;9.95;;;15.10;53.70;;;;;;5118331;28;20104;-38
2021/12/25 00:18:05;;;;;;;13.95;9.55;;;15.10;54.00;;;;;;5117179;28;20071;-36
2021/12/25 00:20:32;;;;;;;13.00;9.60;;;15.20;53.80;;;;;;5117492;28;20028;-38
2021/12/25 00:23:00;;;;;;;13.77;9.63;;;15.10;53.80;;;;;;5098741;28;20027;-37
2021/12/25 00:25:26;;;;;;;13.15;9.65;;;15.10;54.10;;;;;;5099145;28;20019;-37
2021/12/25 00:30:29;;;;;;;13.23;9.48;;;15.10;53.80;;;;;;5099779;28;20027;-39
2021/12/25 00:33:18;;;;;;;13.23;9.88;;;15.10;53.70;;;;;;5101500;28;20069;-40
2021/12/25 00:35:40;;;;;;;13.68;9.77;;;15.10;54.00;;;;;;5101993;28;20015;-38
2021/12/25 00:38:13;;;;;;;12.05;9.45;;;15.10;54.10;;;;;;5117438;28;20020;-37
2021/12/25 00:40:39;;;;;;;13.75;9.88;;;15.10;53.90;;;;;;5117357;28;20020;-37
2021/12/25 00:43:05;;;;;;;13.95;9.93;;;15.20;53.90;;;;;;5118407;28;20080;-37
2021/12/25 00:45:32;;;;;;;14.77;9.85;;;15.10;53.80;;;;;;5119056;28;20075;-38
2021/12/25 00:47:59;;;;;;;12.40;9.13;;;15.10;54.00;;;;;;5119198;28;20469;-39
2021/12/25 00:50:26;;;;;;;14.35;10.15;;;15.10;54.10;;;;;;5118891;28;20027;-41
2021/12/25 00:52:52;;;;;;;12.75;9.63;;;15.10;54.00;;;;;;5119569;28;20035;-37
2021/12/25 00:55:18;;;;;;;13.32;9.88;;;15.10;53.80;;;;;;5120168;28;20382;-37
2021/12/25 00:57:45;;;;;;;15.90;9.95;;;15.10;53.90;;;;;;5100320;28;20016;-39
2021/12/25 01:00:12;;;;;;;14.63;10.77;;;15.10;53.80;;;;;;5118918;28;20523;-37
2021/12/25 01:02:39;;;;;;;13.57;9.80;;;15.10;53.80;;;;;;5118824;28;20022;-37
2021/12/25 01:05:06;;;;;;;14.32;10.32;;;15.10;54.40;;;;;;5118462;28;20044;-37
2021/12/25 01:07:31;;;;;;;14.15;10.00;;;15.10;53.90;;;;;;5118923;28;20027;-38
2021/12/25 01:09:57;;;;;;;13.77;10.25;;;15.10;54.00;;;;;;5119005;28;20521;-36
2021/12/25 01:12:23;;;;;;;13.75;10.35;;;15.10;54.00;;;;;;5119706;28;20359;-38
2021/12/25 01:14:56;;;;;;;15.00;10.43;;;15.10;54.20;;;;;;5119051;28;20016;-38
2021/12/25 01:17:58;;;;;;;13.68;10.05;;;15.10;54.20;;;;;;5118997;28;20044;-38
2021/12/25 01:25:57;;;;;;;14.32;10.75;;;15.10;53.80;;;;;;5119065;28;20106;-37
2021/12/25 01:39:20;;;;;;;14.15;10.10;;;15.10;54.00;;;;;;5116892;28;20102;-40
2021/12/25 01:42:05;;;;;;;13.70;10.32;;;15.10;54.10;;;;;;5115925;28;20039;-38
2021/12/25 01:49:54;;;;;;;15.05;10.40;;;15.10;54.10;;;;;;5097575;28;20042;-38
2021/12/25 01:52:26;;;;;;;15.88;11.05;;;15.10;54.30;;;;;;5113711;28;20016;-38
2021/12/25 01:54:52;;;;;;;15.52;11.30;;;15.10;54.30;;;;;;5114060;28;20087;-38
2021/12/25 01:57:19;;;;;;;13.98;10.32;;;15.00;54.10;;;;;;5113624;28;20014;-38
2021/12/25 01:59:45;;;;;;;14.70;10.93;;;15.00;54.10;;;;;;5113782;28;20016;-38
2021/12/25 02:02:11;;;;;;;14.90;10.63;;;15.10;54.30;;;;;;5113127;28;20111;-38
2021/12/25 02:04:37;;;;;;;16.13;11.05;;;15.00;54.60;;;;;;5095591;28;20514;-38
2021/12/25 02:07:10;;;;;;;15.98;10.82;;;15.00;54.20;;;;;;5113538;28;20508;-38
2021/12/25 02:09:36;;;;;;;15.00;11.23;;;15.00;54.30;;;;;;5095709;28;20027;-38
2021/12/25 02:12:04;;;;;;;14.63;10.68;;;15.00;54.30;;;;;;5113784;28;20024;-38
2021/12/25 02:14:30;;;;;;;16.30;11.25;;;15.00;54.20;;;;;;5114335;28;20023;-38
2021/12/25 02:17:03;;;;;;;15.45;11.32;;;15.00;54.40;;;;;;5115182;28;20070;-38
2021/12/25 02:19:38;;;;;;;15.10;11.13;;;15.00;54.40;;;;;;5115372;28;20383;-39
2021/12/25 02:22:05;;;;;;;15.23;10.88;;;15.00;54.50;;;;;;5115448;28;20034;-39
2021/12/25 02:24:30;;;;;;;14.15;10.65;;;15.00;54.30;;;;;;5097643;28;20016;-39
2021/12/25 02:26:57;;;;;;;13.90;10.57;;;15.00;54.40;;;;;;5098072;28;20031;-39
2021/12/25 02:29:23;;;;;;;14.15;10.60;;;15.00;54.30;;;;;;5118517;28;20027;-39
2021/12/25 02:31:49;;;;;;;15.27;10.77;;;15.00;54.50;;;;;;5117874;28;20037;-40
2021/12/25 02:34:15;;;;;;;14.00;10.68;;;15.00;54.40;;;;;;5117415;28;20016;-40
2021/12/25 02:36:41;;;;;;;13.82;10.27;;;15.00;54.60;;;;;;5099917;28;20027;-41
2021/12/25 02:39:08;;;;;;;13.65;9.93;;;15.00;54.10;;;;;;5099431;28;20500;-40
2021/12/25 02:41:34;;;;;;;14.30;10.48;;;15.00;54.20;;;;;;5117524;28;20022;-39
2021/12/25 02:44:00;;;;;;;14.57;10.77;;;15.00;54.30;;;;;;5118917;28;20035;-39
2021/12/25 02:46:26;;;;;;;13.52;10.30;;;15.00;54.50;;;;;;5099719;28;20024;-40
2021/12/25 02:48:55;;;;;;;15.70;11.02;;;15.00;54.50;;;;;;5118108;28;20024;-38
2021/12/25 02:51:21;;;;;;;12.93;9.80;;;15.00;54.70;;;;;;5099952;28;20024;-40
2021/12/25 02:53:47;;;;;;;13.85;10.95;;;15.00;54.40;;;;;;5099290;28;20516;-38
2021/12/25 02:56:12;;;;;;;14.88;10.93;;;15.00;54.50;;;;;;5097538;28;20043;-38
2021/12/25 02:58:39;;;;;;;14.95;10.30;;;15.00;54.60;;;;;;5114456;28;20054;-38
2021/12/25 03:01:10;;;;;;;12.70;9.38;;;14.90;54.40;;;;;;5114782;28;20046;-38
2021/12/25 03:03:36;;;;;;;13.15;10.02;;;15.00;54.40;;;;;;5114569;28;20502;-39
2021/12/25 03:06:06;;;;;;;12.80;9.98;;;15.00;54.70;;;;;;5114465;28;20065;-38
2021/12/25 03:08:33;;;;;;;13.52;10.23;;;15.00;54.40;;;;;;5096549;28;20054;-39
2021/12/25 03:10:59;;;;;;;14.77;10.48;;;15.00;54.60;;;;;;5096914;28;20442;-40
2021/12/25 03:13:45;;;;;;;13.93;10.10;;;15.00;54.80;;;;;;5103140;28;20470;-38
2021/12/25 03:16:11;;;;;;;13.15;9.65;;;15.00;54.70;;;;;;5120886;28;20052;-38
2021/12/25 03:18:44;;;;;;;12.48;9.65;;;15.00;54.50;;;;;;5121551;28;20015;-39
2021/12/25 03:21:10;;;;;;;12.10;9.13;;;15.00;54.70;;;;;;5121758;28;20016;-38
2021/12/25 03:23:43;;;;;;;11.90;9.32;;;15.00;54.70;;;;;;5122413;28;20043;-38
2021/12/25 03:26:09;;;;;;;12.10;9.68;;;15.00;54.40;;;;;;5103900;28;20012;-38
2021/12/25 03:28:39;;;;;;;11.65;9.35;;;15.00;54.70;;;;;;5121194;28;20034;-40
2021/12/25 03:31:13;;;;;;;11.40;8.77;;;15.00;55.00;;;;;;5121662;28;20004;-39
2021/12/25 03:33:38;;;;;;;12.63;9.50;;;15.00;54.50;;;;;;5120703;28;20008;-38
2021/12/25 03:36:04;;;;;;;12.45;9.48;;;15.00;54.70;;;;;;5120073;28;20012;-39
2021/12/25 03:38:31;;;;;;;12.05;9.15;;;15.00;54.70;;;;;;5101300;28;20053;-39
2021/12/25 03:40:57;;;;;;;12.30;8.73;;;15.00;55.30;;;;;;5101720;28;20100;-40
2021/12/25 03:43:24;;;;;;;11.40;9.25;;;14.90;54.60;;;;;;5102867;28;20027;-40
2021/12/25 03:45:51;;;;;;;10.80;8.40;;;14.90;54.70;;;;;;5120379;28;20019;-38
2021/12/25 03:58:51;;;;;;;10.32;8.27;;;14.90;54.70;;;;;;5121829;28;20401;-40
2021/12/25 04:04:15;;;;;;;10.23;8.25;;;14.90;54.50;;;;;;5121199;28;20019;-40
2021/12/25 04:06:54;;;;;;;9.98;8.07;;;15.00;55.00;;;;;;5106707;28;20020;-39
2021/12/25 04:09:24;;;;;;;9.90;7.10;;;14.90;54.60;;;;;;5121589;28;20097;-39
2021/12/25 04:11:50;;;;;;;9.73;7.97;;;14.90;54.40;;;;;;5120806;28;20091;-40
2021/12/25 04:14:19;;;;;;;10.57;7.32;;;14.90;54.60;;;;;;5120706;28;20020;-40
2021/12/25 04:16:46;;;;;;;8.75;7.10;;;14.90;55.00;;;;;;5120955;28;20046;-39
2021/12/25 04:19:12;;;;;;;8.50;7.10;;;14.90;54.70;;;;;;5121338;28;20046;-39
2021/12/25 04:21:47;;;;;;;8.88;6.88;;;14.90;54.70;;;;;;5120704;28;20386;-38
2021/12/25 04:24:13;;;;;;;9.00;7.00;;;14.90;54.60;;;;;;5120484;28;20016;-40
2021/12/25 04:26:42;;;;;;;10.07;7.35;;;14.90;54.60;;;;;;5121607;28;20157;-39
2021/12/25 04:29:48;;;;;;;7.50;6.28;;;14.90;54.70;;;;;;5120403;28;20030;-41
2021/12/25 05:01:49;;;;;;;6.38;5.30;;;14.80;54.50;;;;;;5116984;28;20030;-40
2021/12/25 05:04:23;;;;;;;6.00;4.80;;;14.80;54.40;;;;;;5116931;28;20028;-40
2021/12/25 05:06:49;;;;;;;6.03;5.03;;;14.80;54.50;;;;;;5118433;28;20019;-38
2021/12/25 05:09:23;;;;;;;5.82;4.78;;;14.80;54.50;;;;;;5118766;28;20367;-39
2021/12/25 05:11:49;;;;;;;6.10;5.20;;;14.80;54.40;;;;;;5118707;28;20018;-41
2021/12/25 05:14:15;;;;;;;5.22;4.55;;;14.80;54.40;;;;;;5119880;28;20027;-38
2021/12/25 05:16:42;;;;;;;5.93;4.70;;;14.80;54.50;;;;;;5120133;28;20612;-38
2021/12/25 05:19:08;;;;;;;5.38;4.63;;;14.80;54.40;;;;;;5120647;28;20046;-44
2021/12/25 05:21:34;;;;;;;6.45;4.95;;;14.90;54.30;;;;;;5103019;28;20027;-39
2021/12/25 05:24:01;;;;;;;5.65;4.82;;;14.80;54.30;;;;;;5102698;28;20102;-44
2021/12/25 05:26:27;;;;;;;5.43;4.68;;;14.80;54.20;;;;;;5120510;28;20034;-41
2021/12/25 05:28:59;;;;;;;5.20;4.53;;;14.80;54.30;;;;;;5118550;28;20028;-40
2021/12/25 05:31:26;;;;;;;5.57;4.40;;;14.80;54.30;;;;;;5117751;28;20064;-40
2021/12/25 05:33:52;;;;;;;6.43;4.40;;;14.80;54.20;;;;;;5118250;28;20030;-38
2021/12/25 05:36:19;;;;;;;5.55;4.60;;;14.80;54.00;;;;;;5099440;28;20015;-38
2021/12/25 05:38:44;;;;;;;4.38;3.97;;;14.80;54.00;;;;;;5118138;28;20030;-39
2021/12/25 05:41:11;;;;;;;5.10;4.25;;;14.80;54.30;;;;;;5117652;28;20019;-41
2021/12/25 05:43:37;;;;;;;5.10;4.10;;;14.80;54.20;;;;;;5097908;28;20020;-38
2021/12/25 05:46:03;;;;;;;5.15;4.05;;;14.80;54.00;;;;;;5116226;28;20026;-38
2021/12/25 05:48:35;;;;;;;4.97;4.07;;;14.80;54.00;;;;;;5116261;28;20031;-38
2021/12/25 05:51:01;;;;;;;5.07;4.18;;;14.80;54.20;;;;;;5116874;28;20027;-38
2021/12/25 05:53:28;;;;;;;4.90;3.92;;;14.80;54.20;;;;;;5116975;28;20008;-38
2021/12/25 05:55:54;;;;;;;5.18;4.03;;;14.70;54.20;;;;;;5116237;28;20027;-39
2021/12/25 05:58:20;;;;;;;5.28;4.20;;;14.80;54.10;;;;;;5116339;28;20027;-38
2021/12/25 06:00:47;;;;;;;4.32;3.88;;;14.80;54.00;;;;;;5116017;28;20020;-38
2021/12/25 06:03:13;;;;;;;5.05;4.22;;;14.80;53.90;;;;;;5116376;28;20481;-38
2021/12/25 06:05:40;;;;;;;5.00;4.20;;;14.80;54.00;;;;;;5116027;28;20019;-39
2021/12/25 06:08:06;;;;;;;4.80;4.10;;;14.80;53.80;;;;;;5116287;28;20012;-38
2021/12/25 06:10:32;;;;;;;4.28;3.63;;;14.80;53.80;;;;;;5115832;28;20015;-42
2021/12/25 06:13:00;;;;;;;4.50;3.80;;;14.70;53.90;;;;;;5119427;28;20020;-40
2021/12/25 06:15:26;;;;;;;4.90;4.38;;;14.70;53.80;;;;;;5120945;28;20512;-41
2021/12/25 06:17:52;;;;;;;4.75;4.05;;;14.70;53.70;;;;;;5102576;28;20122;-39
2021/12/25 06:20:18;;;;;;;4.57;4.07;;;14.70;53.70;;;;;;5120357;28;20039;-42
2021/12/25 06:22:43;;;;;;;4.68;3.95;;;14.70;53.70;;;;;;5102601;28;20045;-41
2021/12/25 06:25:10;;;;;;;4.90;4.05;;;14.80;53.70;;;;;;5121433;28;20030;-40
2021/12/25 06:27:36;;;;;;;5.00;4.10;;;14.80;53.60;;;;;;5119657;28;20090;-42
2021/12/25 06:30:02;;;;;;;4.25;3.78;;;14.70;53.50;;;;;;5119401;28;20535;-39
2021/12/25 06:32:29;;;;;;;4.30;3.90;;;14.70;53.50;;;;;;5119204;28;20011;-40
2021/12/25 06:34:56;;;;;;;4.25;3.85;;;14.70;53.60;;;;;;5118594;28;20466;-39
2021/12/25 06:37:24;;;;;;;4.57;3.95;;;14.80;53.50;;;;;;5118310;28;20031;-45
2021/12/25 06:39:50;;;;;;;4.35;3.75;;;14.70;53.50;;;;;;5117854;28;20090;-45
2021/12/25 06:42:15;;;;;;;5.57;4.22;;;14.70;53.30;;;;;;5118911;28;20023;-45
2021/12/25 06:44:41;;;;;;;4.45;4.00;;;14.70;53.40;;;;;;5118075;28;20611;-50
2021/12/25 06:47:08;;;;;;;4.10;3.70;;;14.70;53.30;;;;;;5118904;28;20050;-47
2021/12/25 06:49:33;;;;;;;4.70;4.05;;;14.70;53.30;;;;;;5102677;28;20028;-49
2021/12/25 06:52:00;;;;;;;4.45;3.88;;;14.80;53.30;;;;;;5121132;28;20104;-47
2021/12/25 06:54:27;;;;;;;4.50;4.00;;;14.70;53.10;;;;;;5121106;28;20012;-49
2021/12/25 06:56:53;;;;;;;4.05;3.60;;;14.70;53.00;;;;;;5121750;28;20488;-38
2021/12/25 06:59:21;;;;;;;4.45;3.53;;;14.70;53.10;;;;;;5122768;28;20083;-38
2021/12/25 07:01:48;;;;;;;4.30;3.70;;;14.70;53.00;;;;;;5122578;28;20024;-39
2021/12/25 07:04:14;;;;;;;3.83;3.42;;;14.70;53.00;;;;;;5123158;28;20012;-39
2021/12/25 07:06:40;;;;;;;4.18;3.45;;;14.70;53.00;;;;;;5123143;28;20079;-38
2021/12/25 07:09:06;;;;;;;4.32;3.58;;;14.70;53.00;;;;;;5122870;28;20057;-40
2021/12/25 07:11:33;;;;;;;3.97;3.50;;;14.70;52.90;;;;;;5123079;28;20057;-39
2021/12/25 07:14:04;;;;;;;3.72;3.35;;;14.70;52.80;;;;;;5103951;28;20008;-39
2021/12/25 07:16:30;;;;;;;3.97;3.58;;;14.70;52.90;;;;;;5121490;28;20040;-40
2021/12/25 07:18:57;;;;;;;4.00;3.40;;;14.70;52.80;;;;;;5103726;28;20494;-43
2021/12/25 07:21:23;;;;;;;3.53;3.22;;;14.70;52.90;;;;;;5121505;28;20076;-43
2021/12/25 07:23:49;;;;;;;4.00;3.60;;;14.60;52.70;;;;;;5121532;28;20016;-41
2021/12/25 07:26:18;;;;;;;3.92;3.40;;;14.70;52.50;;;;;;5120753;28;20016;-39
2021/12/25 07:28:47;;;;;;;3.85;3.45;;;14.60;52.50;;;;;;5120882;28;20105;-40
2021/12/25 07:31:13;;;;;;;4.25;3.70;;;14.70;52.60;;;;;;5121018;28;20039;-38
2021/12/25 07:33:42;;;;;;;3.80;3.40;;;14.60;52.60;;;;;;5120301;28;20008;-39
2021/12/25 07:36:09;;;;;;;3.78;3.40;;;14.60;52.60;;;;;;5101989;28;20011;-39
2021/12/25 07:38:34;;;;;;;4.47;3.83;;;14.60;52.30;;;;;;5101226;28;20023;-39
2021/12/25 07:41:00;;;;;;;4.30;3.47;;;14.60;52.40;;;;;;5083996;28;20023;-39
2021/12/25 07:43:26;;;;;;;3.67;3.28;;;14.60;52.20;;;;;;5101276;28;20466;-41
2021/12/25 07:45:53;;;;;;;3.80;3.38;;;14.60;52.20;;;;;;5101423;28;20508;-39
2021/12/25 07:48:20;;;;;;;3.40;3.10;;;14.60;52.20;;;;;;5100934;28;20122;-40
2021/12/25 07:50:46;;;;;;;3.60;3.25;;;14.70;52.10;;;;;;5102336;28;20474;-38
2021/12/25 07:53:12;;;;;;;3.58;3.20;;;14.60;52.00;;;;;;5120321;28;20031;-39
2021/12/25 07:55:39;;;;;;;3.92;3.53;;;14.60;52.10;;;;;;5101487;28;20016;-39
2021/12/25 07:58:06;;;;;;;3.60;3.30;;;14.60;52.10;;;;;;5117824;28;20577;-38
2021/12/25 08:00:31;;;;;;;3.38;3.08;;;14.60;52.10;;;;;;5119286;28;20008;-39
2021/12/25 08:02:58;;;;;;;3.80;3.40;;;14.60;51.80;;;;;;5119357;28;20024;-39
2021/12/25 08:05:24;;;;;;;3.40;3.10;;;14.70;51.80;;;;;;5119107;28;20049;-40
2021/12/25 08:07:51;;;;;;;4.07;3.38;;;14.70;51.60;;;;;;5118607;28;20012;-40
2021/12/25 08:10:19;;;;;;;3.47;3.17;;;14.70;51.50;;;;;;5118933;28;20542;-38
2021/12/25 08:12:49;;;;;;;3.42;3.13;;;14.80;51.50;;;;;;5119686;28;20153;-39
2021/12/25 08:15:16;;;;;;;3.28;2.97;;;14.80;51.30;;;;;;5120827;28;20023;-40
2021/12/25 08:17:42;;;;;;;3.90;2.72;;;14.80;51.10;;;;;;5120291;28;20066;-40
2021/12/25 08:20:09;;;;;;;3.15;2.85;;;14.90;50.90;;;;;;5119965;28;20035;-40
2021/12/25 08:22:36;;;;;;;2.50;2.30;;;14.90;50.70;;;;;;5120515;28;20046;-39
2021/12/25 08:25:03;;;;;;;3.10;2.80;;;15.00;50.50;;;;;;5120254;28;20477;-39
2021/12/25 08:27:29;;;;;;;2.65;2.45;;;15.10;50.10;;;;;;5101331;28;20027;-40
2021/12/25 08:29:55;;;;;;;3.00;2.70;;;15.30;50.20;;;;;;5119586;28;20028;-40
2021/12/25 08:32:24;;;;;;;2.95;2.65;;;15.40;49.30;;;;;;5120679;28;20041;-40
2021/12/25 08:34:50;;;;;;;3.15;2.85;;;15.50;49.00;;;;;;5121698;28;20012;-39
2021/12/25 08:37:22;;;;;;;2.88;2.63;;;15.60;48.70;;;;;;5102846;28;20477;-39
2021/12/25 08:39:48;;;;;;;2.80;2.60;;;15.60;48.50;;;;;;5120734;28;20019;-40
2021/12/25 08:42:14;;;;;;;2.80;2.47;;;15.70;48.40;;;;;;5099964;28;20062;-39
2021/12/25 08:44:52;;;;;;;2.58;2.38;;;15.70;48.10;;;;;;5117010;28;20024;-39
2021/12/25 08:47:18;;;;;;;2.67;2.47;;;15.80;48.00;;;;;;5116944;28;20474;-38
2021/12/25 08:49:44;;;;;;;2.55;2.35;;;15.80;47.90;;;;;;5116550;28;20061;-38
2021/12/25 08:52:13;;;;;;;2.78;2.55;;;15.90;47.80;;;;;;5116311;28;20061;-39
2021/12/25 08:54:39;;;;;;;2.40;2.20;;;15.80;47.70;;;;;;5098377;28;20095;-39
2021/12/25 08:57:05;;;;;;;2.30;2.10;;;15.90;47.70;;;;;;5118789;28;20016;-41
2021/12/25 08:59:33;;;;;;;2.50;2.30;;;15.90;47.60;;;;;;5119627;28;20462;-43
2021/12/25 09:01:59;;;;;;;2.45;2.20;;;16.00;48.00;;;;;;5119930;28;20026;-41
2021/12/25 09:04:25;;;;;;;2.50;2.30;;;15.90;47.20;;;;;;5120871;28;20463;-41
2021/12/25 09:06:51;;;;;;;2.38;2.17;;;16.00;47.10;;;;;;5119326;28;20019;-39
2021/12/25 09:09:18;;;;;;;2.20;2.00;;;16.00;47.10;;;;;;5118705;28;20114;-40
2021/12/25 09:11:45;;;;;;;2.35;2.15;;;16.00;46.90;;;;;;5120575;28;20037;-44
2021/12/25 09:14:11;;;;;;;2.20;2.00;;;16.00;46.80;;;;;;5121068;28;20008;-40
2021/12/25 09:16:38;;;;;;;2.28;2.08;;;16.10;46.80;;;;;;5120604;28;20073;-39
2021/12/25 09:19:05;;;;;;;2.00;1.80;;;16.10;46.70;;;;;;5118262;28;20016;-40
2021/12/25 09:21:31;;;;;;;2.08;1.90;;;16.10;46.70;;;;;;5118132;28;20019;-40
2021/12/25 09:23:58;;;;;;;2.35;2.15;;;16.10;46.50;;;;;;5117936;28;20474;-39
2021/12/25 09:26:24;;;;;;;2.42;2.10;;;16.20;46.50;;;;;;5117522;28;20065;-39
2021/12/25 09:28:49;;;;;;;2.53;2.33;;;16.20;46.40;;;;;;5119172;28;20793;-40
2021/12/25 09:31:16;;;;;;;2.10;1.90;;;16.20;46.40;;;;;;5084816;28;20012;-40
2021/12/25 09:33:42;;;;;;;2.08;1.88;;;16.20;46.30;;;;;;5119385;28;20035;-40
2021/12/25 09:36:09;;;;;;;2.33;2.13;;;16.20;46.20;;;;;;5118270;28;20012;-39
2021/12/25 09:38:36;;;;;;;2.10;1.90;;;16.20;46.10;;;;;;5119519;28;20047;-39
2021/12/25 09:41:03;;;;;;;2.17;1.98;;;16.30;46.00;;;;;;5119842;28;20043;-40
2021/12/25 09:43:29;;;;;;;2.08;1.80;;;16.30;45.90;;;;;;5117741;28;20007;-39
2021/12/25 09:45:58;;;;;;;2.00;1.80;;;16.30;45.80;;;;;;5117046;28;20510;-40
2021/12/25 09:48:23;;;;;;;2.00;1.80;;;16.30;45.70;;;;;;5116838;28;20137;-41
2021/12/25 09:50:50;;;;;;;1.90;1.77;;;16.40;45.60;;;;;;5117175;28;20012;-40
2021/12/25 09:53:17;;;;;;;2.10;1.90;;;16.40;45.50;;;;;;5116822;28;20061;-38
2021/12/25 09:55:43;;;;;;;1.95;1.80;;;16.40;45.30;;;;;;5116859;28;20378;-39
2021/12/25 09:58:10;;;;;;;1.58;1.48;;;16.40;45.20;;;;;;5116705;28;20545;-38
2021/12/25 10:00:39;;;;;;;1.90;1.70;;;16.40;45.20;;;;;;5116517;28;20019;-38
2021/12/25 10:03:06;;;;;;;1.92;1.75;;;16.50;45.10;;;;;;5116405;28;20466;-39
2021/12/25 10:05:34;;;;;;;2.00;1.80;;;16.40;45.00;;;;;;5098353;28;20007;-41
2021/12/25 10:08:11;;;;;;;1.70;1.60;;;16.50;45.00;;;;;;5097991;28;20020;-39
2021/12/25 10:10:42;;;;;;;1.92;1.80;;;16.50;44.90;;;;;;5116363;28;20087;-38
2021/12/25 10:13:36;;;;;;;2.00;1.80;;;16.50;44.80;;;;;;5117225;28;20033;-39
2021/12/25 10:16:26;;;;;;;1.75;1.50;;;16.50;44.80;;;;;;5116547;28;20016;-39
2021/12/25 10:19:13;;;;;;;1.80;1.70;;;16.50;44.80;;;;;;5116998;28;20015;-39
2021/12/25 10:21:39;;;;;;;2.03;1.83;;;16.50;44.70;;;;;;5115585;28;20047;-39
2021/12/25 10:24:16;;;;;;;1.80;1.70;;;16.50;44.50;;;;;;5098746;28;20015;-40
2021/12/25 10:26:47;;;;;;;1.70;1.60;;;16.60;44.40;;;;;;5100482;28;20024;-40
2021/12/25 10:29:24;;;;;;;1.80;1.70;;;16.60;44.40;;;;;;5100742;28;20030;-39
2021/12/25 10:31:52;;;;;;;1.77;1.67;;;16.60;44.30;;;;;;5119202;28;20071;-39
2021/12/25 10:34:26;;;;;;;1.70;1.60;;;16.60;44.20;;;;;;5119554;28;20012;-39
2021/12/25 10:36:52;;;;;;;2.00;1.80;;;16.60;44.10;;;;;;5102383;28;20488;-40
2021/12/25 10:39:23;;;;;;;1.95;1.75;;;16.60;44.00;;;;;;5101842;28;20486;-40
2021/12/25 10:41:56;;;;;;;1.60;1.50;;;16.60;44.00;;;;;;5102362;28;20015;-40
2021/12/25 10:44:31;;;;;;;1.60;1.50;;;16.60;43.90;;;;;;5083088;28;20022;-41
2021/12/25 10:47:02;;;;;;;1.77;1.55;;;16.70;43.80;;;;;;5118276;28;20027;-48
2021/12/25 10:49:42;;;;;;;1.50;1.40;;;16.70;43.50;;;;;;5118076;28;20043;-39
2021/12/25 10:52:13;;;;;;;1.63;1.50;;;16.70;43.60;;;;;;5099551;28;20084;-40
2021/12/25 10:54:42;;;;;;;1.70;1.60;;;16.70;43.50;;;;;;5117837;28;20058;-39
2021/12/25 10:57:08;;;;;;;1.50;1.40;;;16.80;43.40;;;;;;5118147;28;20091;-39
2021/12/25 10:59:44;;;;;;;1.60;1.50;;;16.70;43.40;;;;;;5117370;28;20024;-40
2021/12/25 11:02:30;;;;;;;1.50;1.40;;;16.70;43.30;;;;;;5117723;28;20065;-40
2021/12/25 11:04:57;;;;;;;1.63;1.48;;;16.80;43.20;;;;;;5117690;28;20011;-40
2021/12/25 11:07:23;;;;;;;1.60;1.50;;;16.80;43.20;;;;;;5117909;28;20020;-41
2021/12/25 11:10:09;;;;;;;1.45;1.35;;;16.70;43.10;;;;;;5082584;28;20120;-39
2021/12/25 11:12:35;;;;;;;1.88;1.60;;;16.80;43.20;;;;;;5117786;28;20012;-41
2021/12/25 11:15:10;;;;;;;1.65;1.55;;;16.80;43.10;;;;;;5117606;28;20090;-39
2021/12/25 11:17:39;;;;;;;1.60;1.50;;;16.80;43.10;;;;;;5117460;28;20035;-40
2021/12/25 11:20:05;;;;;;;1.42;1.33;;;16.70;43.10;;;;;;5117847;28;20016;-39
2021/12/25 11:22:51;;;;;;;1.70;1.50;;;16.70;43.00;;;;;;5117418;28;20046;-40
2021/12/25 11:25:18;;;;;;;1.55;1.45;;;16.70;43.10;;;;;;5118053;28;20012;-40
2021/12/25 11:27:44;;;;;;;1.83;1.73;;;16.70;43.10;;;;;;5118635;28;20016;-40
2021/12/25 11:30:12;;;;;;;1.73;1.30;;;16.60;43.10;;;;;;5118580;28;20023;-39
2021/12/25 11:32:38;;;;;;;1.75;1.60;;;16.60;43.20;;;;;;5099523;28;20477;-39
2021/12/25 11:35:05;;;;;;;1.48;1.38;;;16.60;43.20;;;;;;5120521;28;20016;-38
2021/12/25 11:37:31;;;;;;;1.60;1.50;;;16.60;43.20;;;;;;5121062;28;20034;-39
2021/12/25 11:39:57;;;;;;;1.73;1.63;;;16.50;43.30;;;;;;5120693;28;20022;-40
2021/12/25 11:42:25;;;;;;;1.40;1.30;;;16.50;43.30;;;;;;5101834;28;20027;-39
2021/12/25 11:44:53;;;;;;;1.40;1.30;;;16.50;43.40;;;;;;5119823;28;20022;-41
2021/12/25 11:47:38;;;;;;;1.60;1.50;;;16.40;43.30;;;;;;5119466;28;20024;-40
2021/12/25 11:50:32;;;;;;;1.63;1.52;;;16.30;43.40;;;;;;5119220;28;20020;-39
2021/12/25 11:53:06;;;;;;;1.70;1.60;;;16.40;43.40;;;;;;5089293;28;20024;-41
2021/12/25 11:56:02;;;;;;;2.03;1.58;;;16.30;43.50;;;;;;5118621;28;20018;-40
2021/12/25 11:58:51;;;;;;;1.83;1.73;;;16.30;43.60;;;;;;5118644;28;20443;-38
2021/12/25 12:01:32;;;;;;;1.73;1.63;;;16.20;43.60;;;;;;5119285;28;20011;-40
2021/12/25 12:04:11;;;;;;;1.85;1.75;;;16.20;43.70;;;;;;5119065;28;20012;-39
2021/12/25 12:06:44;;;;;;;2.25;2.05;;;16.20;43.70;;;;;;5118665;28;20019;-39
2021/12/25 12:09:17;;;;;;;1.90;1.80;;;16.10;43.80;;;;;;5118871;28;20035;-38
2021/12/25 12:11:45;;;;;;;2.20;2.00;;;16.10;43.80;;;;;;5118302;28;20019;-39
2021/12/25 12:14:18;;;;;;;2.08;1.90;;;16.10;43.90;;;;;;5100220;28;20530;-39
2021/12/25 12:16:45;;;;;;;2.25;2.05;;;16.00;43.90;;;;;;5117877;28;20051;-40
2021/12/25 12:19:30;;;;;;;2.10;1.90;;;16.00;44.00;;;;;;5118449;28;20023;-40
2021/12/25 12:21:57;;;;;;;1.90;1.75;;;15.90;44.00;;;;;;5118711;28;20020;-39
2021/12/25 12:24:50;;;;;;;2.35;2.15;;;15.90;44.10;;;;;;5117855;28;20035;-40
2021/12/25 12:27:40;;;;;;;2.10;1.90;;;15.80;44.10;;;;;;5117129;28;20046;-39
2021/12/25 12:30:39;;;;;;;2.60;2.13;;;15.80;44.20;;;;;;5117737;28;20020;-41
2021/12/25 12:33:17;;;;;;;2.40;2.20;;;15.70;44.30;;;;;;5117460;28;20011;-40
2021/12/25 12:35:49;;;;;;;2.58;2.22;;;15.70;44.30;;;;;;5099033;28;20012;-41
2021/12/25 12:38:47;;;;;;;2.17;2.00;;;15.70;44.10;;;;;;5099437;28;20355;-38
2021/12/25 12:41:22;;;;;;;2.42;2.13;;;15.70;44.30;;;;;;5100162;28;20030;-38
2021/12/25 12:43:59;;;;;;;2.60;2.40;;;15.70;44.10;;;;;;5118133;28;20015;-38
2021/12/25 12:46:53;;;;;;;2.70;2.50;;;15.70;44.30;;;;;;5117713;28;20024;-38
2021/12/25 12:49:38;;;;;;;2.58;2.38;;;15.70;44.10;;;;;;5104971;28;20092;-39
2021/12/25 12:52:14;;;;;;;2.75;2.55;;;15.60;44.10;;;;;;5117203;28;20016;-39
2021/12/25 12:54:50;;;;;;;3.40;3.10;;;15.70;44.00;;;;;;5098984;28;20008;-41
2021/12/25 12:57:23;;;;;;;2.85;2.65;;;15.60;44.00;;;;;;5116334;28;20420;-38
2021/12/25 12:59:56;;;;;;;2.90;2.70;;;15.60;43.90;;;;;;5115793;28;20023;-38
2021/12/25 13:02:23;;;;;;;3.53;3.22;;;15.60;44.00;;;;;;5097190;28;20470;-38
2021/12/25 13:04:51;;;;;;;2.90;2.70;;;15.50;44.10;;;;;;5115910;28;20007;-38
2021/12/25 13:07:19;;;;;;;3.33;2.97;;;15.50;44.20;;;;;;5115377;28;20539;-38
2021/12/25 13:09:51;;;;;;;3.35;3.05;;;15.40;44.20;;;;;;5115548;28;20498;-38
2021/12/25 13:12:38;;;;;;;3.40;3.10;;;15.40;44.30;;;;;;5116035;28;20039;-38
2021/12/25 13:15:18;;;;;;;3.47;3.17;;;15.40;44.30;;;;;;5115139;28;20057;-38
2021/12/25 13:17:53;;;;;;;3.60;3.30;;;15.40;44.30;;;;;;5115041;28;20035;-40
2021/12/25 13:20:32;;;;;;;3.80;3.50;;;15.40;44.30;;;;;;5114854;28;20012;-38
2021/12/25 13:22:59;;;;;;;3.90;3.50;;;15.40;44.40;;;;;;5115207;28;20024;-38
2021/12/25 13:25:25;;;;;;;4.18;3.78;;;15.30;44.30;;;;;;5115354;28;20022;-38
2021/12/25 13:27:58;;;;;;;4.03;3.72;;;15.30;44.30;;;;;;5115473;28;20011;-38
2021/12/25 13:30:24;;;;;;;3.65;3.35;;;15.30;44.30;;;;;;5115509;28;20065;-38
2021/12/25 13:32:51;;;;;;;3.90;3.60;;;15.30;44.40;;;;;;5115339;28;20020;-38
2021/12/25 13:35:18;;;;;;;4.30;3.85;;;15.20;44.30;;;;;;5115017;28;20015;-38
2021/12/25 13:37:44;;;;;;;4.38;3.97;;;15.30;44.30;;;;;;5080027;28;20019;-38
2021/12/25 13:40:14;;;;;;;3.95;3.65;;;15.30;44.40;;;;;;5115053;28;20015;-39
2021/12/25 13:42:40;;;;;;;4.40;4.00;;;15.30;44.40;;;;;;5116566;28;20022;-38
2021/12/25 13:45:06;;;;;;;5.07;4.60;;;15.20;44.30;;;;;;5098815;28;20015;-38
2021/12/25 13:47:34;;;;;;;4.90;4.50;;;15.20;44.30;;;;;;5099008;28;20531;-39
2021/12/25 13:50:05;;;;;;;4.63;4.22;;;15.10;44.30;;;;;;5116934;28;20028;-38
2021/12/25 13:52:34;;;;;;;4.80;4.30;;;15.10;44.20;;;;;;5117691;28;20019;-39
2021/12/25 13:55:06;;;;;;;4.57;4.18;;;15.10;44.80;;;;;;5116901;28;20008;-38
2021/12/25 13:57:33;;;;;;;4.68;4.28;;;15.10;44.40;;;;;;5116547;28;20012;-38
2021/12/25 14:00:03;;;;;;;4.70;4.30;;;15.10;44.30;;;;;;5098804;28;20026;-39
2021/12/25 14:02:31;;;;;;;5.40;4.90;;;15.10;44.30;;;;;;5117225;28;20019;-38